sensor_id;sensor_type;location;lat;lon;timestamp;temperature;humidity
75190;HTU21D;69198;44.694;37.790;2023-07-02T00:00:39;22.31;89.71
75190;HTU21D;69198;44.694;37.790;2023-07-02T00:01:41;22.27;89.77
75190;HTU21D;69198;44.694;37.790;2023-07-02T00:02:42;22.24;89.86
75190;HTU21D;69198;44.694;37.790;2023-07-02T00:03:43;22.21;89.92
75190;HTU21D;69198;44.694;37.790;2023-07-02T00:04:44;22.18;90.01
75190;HTU21D;69198;44.694;37.790;2023-07-02T00:05:45;22.16;90.08
75190;HTU21D;69198;44.694;37.790;2023-07-02T00:06:49;22.14;90.08
75190;HTU21D;69198;44.694;37.790;2023-07-02T00:07:50;22.14;90.06
75190;HTU21D;69198;44.694;37.790;2023-07-02T00:08:52;22.12;90.03
75190;HTU21D;69198;44.694;37.790;2023-07-02T00:09:53;22.10;90.01
75190;HTU21D;69198;44.694;37.790;2023-07-02T00:10:54;22.08;90.08
75190;HTU21D;69198;44.694;37.790;2023-07-02T00:11:55;22.07;90.15
75190;HTU21D;69198;44.694;37.790;2023-07-02T00:12:56;22.08;90.16
75190;HTU21D;69198;44.694;37.790;2023-07-02T00:13:57;22.07;90.12
75190;HTU21D;69198;44.694;37.790;2023-07-02T00:14:58;22.10;89.99
75190;HTU21D;69198;44.694;37.790;2023-07-02T00:15:59;22.14;89.70
75190;HTU21D;69198;44.694;37.790;2023-07-02T00:17:00;22.19;89.12
75190;HTU21D;69198;44.694;37.790;2023-07-02T00:18:01;22.24;88.59
75190;HTU21D;69198;44.694;37.790;2023-07-02T00:19:02;22.32;88.02
75190;HTU21D;69198;44.694;37.790;2023-07-02T00:20:03;22.37;87.48
75190;HTU21D;69198;44.694;37.790;2023-07-02T00:21:09;22.43;87.06
75190;HTU21D;69198;44.694;37.790;2023-07-02T00:22:14;22.50;86.64
75190;HTU21D;69198;44.694;37.790;2023-07-02T00:23:16;22.55;86.22
75190;HTU21D;69198;44.694;37.790;2023-07-02T00:24:17;22.57;85.94
75190;HTU21D;69198;44.694;37.790;2023-07-02T00:25:18;22.61;85.62
75190;HTU21D;69198;44.694;37.790;2023-07-02T00:26:19;22.62;85.30
75190;HTU21D;69198;44.694;37.790;2023-07-02T00:27:20;22.64;85.12
75190;HTU21D;69198;44.694;37.790;2023-07-02T00:28:21;22.67;84.89
75190;HTU21D;69198;44.694;37.790;2023-07-02T00:29:22;22.70;84.74
75190;HTU21D;69198;44.694;37.790;2023-07-02T00:30:24;22.72;84.61
75190;HTU21D;69198;44.694;37.790;2023-07-02T00:31:25;22.75;84.47
75190;HTU21D;69198;44.694;37.790;2023-07-02T00:32:26;22.78;84.35
75190;HTU21D;69198;44.694;37.790;2023-07-02T00:33:31;22.80;84.27
75190;HTU21D;69198;44.694;37.790;2023-07-02T00:34:32;22.82;84.21
75190;HTU21D;69198;44.694;37.790;2023-07-02T00:35:33;22.83;84.16
75190;HTU21D;69198;44.694;37.790;2023-07-02T00:36:34;22.83;84.14
75190;HTU21D;69198;44.694;37.790;2023-07-02T00:37:35;22.84;84.16
75190;HTU21D;69198;44.694;37.790;2023-07-02T00:38:36;22.84;84.17
75190;HTU21D;69198;44.694;37.790;2023-07-02T00:39:37;22.81;84.19
75190;HTU21D;69198;44.694;37.790;2023-07-02T00:40:38;22.80;84.23
75190;HTU21D;69198;44.694;37.790;2023-07-02T00:41:39;22.76;84.28
75190;HTU21D;69198;44.694;37.790;2023-07-02T00:42:42;22.73;84.34
75190;HTU21D;69198;44.694;37.790;2023-07-02T00:43:43;22.72;84.41
75190;HTU21D;69198;44.694;37.790;2023-07-02T00:44:44;22.75;84.32
75190;HTU21D;69198;44.694;37.790;2023-07-02T00:45:46;22.76;84.13
75190;HTU21D;69198;44.694;37.790;2023-07-02T00:46:47;22.80;83.91
75190;HTU21D;69198;44.694;37.790;2023-07-02T00:47:48;22.82;83.74
75190;HTU21D;69198;44.694;37.790;2023-07-02T00:48:51;22.85;83.58
75190;HTU21D;69198;44.694;37.790;2023-07-02T00:49:53;22.88;83.34
75190;HTU21D;69198;44.694;37.790;2023-07-02T00:50:55;22.92;83.13
75190;HTU21D;69198;44.694;37.790;2023-07-02T00:51:56;22.94;82.99
75190;HTU21D;69198;44.694;37.790;2023-07-02T00:52:58;22.96;82.85
75190;HTU21D;69198;44.694;37.790;2023-07-02T00:53:59;22.99;82.78
75190;HTU21D;69198;44.694;37.790;2023-07-02T00:55:00;23.00;82.68
75190;HTU21D;69198;44.694;37.790;2023-07-02T00:56:01;23.02;82.56
75190;HTU21D;69198;44.694;37.790;2023-07-02T00:57:03;23.02;82.47
75190;HTU21D;69198;44.694;37.790;2023-07-02T00:58:06;23.06;82.33
75190;HTU21D;69198;44.694;37.790;2023-07-02T00:59:09;23.07;82.22
75190;HTU21D;69198;44.694;37.790;2023-07-02T01:00:10;23.08;82.01
75190;HTU21D;69198;44.694;37.790;2023-07-02T01:01:11;23.09;81.93
75190;HTU21D;69198;44.694;37.790;2023-07-02T01:02:12;23.09;81.84
75190;HTU21D;69198;44.694;37.790;2023-07-02T01:03:13;23.09;81.76
75190;HTU21D;69198;44.694;37.790;2023-07-02T01:04:17;23.08;81.68
75190;HTU21D;69198;44.694;37.790;2023-07-02T01:05:18;23.07;81.65
75190;HTU21D;69198;44.694;37.790;2023-07-02T01:06:31;23.06;81.60
75190;HTU21D;69198;44.694;37.790;2023-07-02T01:07:33;23.06;81.65
75190;HTU21D;69198;44.694;37.790;2023-07-02T01:08:34;23.03;81.46
75190;HTU21D;69198;44.694;37.790;2023-07-02T01:09:35;23.05;81.25
75190;HTU21D;69198;44.694;37.790;2023-07-02T01:10:37;23.06;81.08
75190;HTU21D;69198;44.694;37.790;2023-07-02T01:11:43;23.08;80.88
75190;HTU21D;69198;44.694;37.790;2023-07-02T01:12:46;23.06;80.81
75190;HTU21D;69198;44.694;37.790;2023-07-02T01:13:48;23.07;80.71
75190;HTU21D;69198;44.694;37.790;2023-07-02T01:14:52;23.09;80.68
75190;HTU21D;69198;44.694;37.790;2023-07-02T01:15:54;23.08;80.91
75190;HTU21D;69198;44.694;37.790;2023-07-02T01:16:57;23.06;81.53
75190;HTU21D;69198;44.694;37.790;2023-07-02T01:17:58;23.06;82.23
75190;HTU21D;69198;44.694;37.790;2023-07-02T01:19:02;23.02;82.81
75190;HTU21D;69198;44.694;37.790;2023-07-02T01:20:08;23.00;83.27
75190;HTU21D;69198;44.694;37.790;2023-07-02T01:21:10;22.98;83.66
75190;HTU21D;69198;44.694;37.790;2023-07-02T01:22:12;22.95;84.00
75190;HTU21D;69198;44.694;37.790;2023-07-02T01:23:13;22.95;84.19
75190;HTU21D;69198;44.694;37.790;2023-07-02T01:24:16;22.94;84.24
75190;HTU21D;69198;44.694;37.790;2023-07-02T01:25:18;22.93;84.32
75190;HTU21D;69198;44.694;37.790;2023-07-02T01:26:19;22.93;84.47
75190;HTU21D;69198;44.694;37.790;2023-07-02T01:27:21;22.94;84.67
75190;HTU21D;69198;44.694;37.790;2023-07-02T01:28:22;22.93;84.68
75190;HTU21D;69198;44.694;37.790;2023-07-02T01:29:25;22.96;84.69
75190;HTU21D;69198;44.694;37.790;2023-07-02T01:30:26;22.96;84.74
75190;HTU21D;69198;44.694;37.790;2023-07-02T01:31:27;22.95;84.84
75190;HTU21D;69198;44.694;37.790;2023-07-02T01:32:28;22.95;84.92
75190;HTU21D;69198;44.694;37.790;2023-07-02T01:33:29;22.93;85.00
75190;HTU21D;69198;44.694;37.790;2023-07-02T01:34:30;22.92;85.04
75190;HTU21D;69198;44.694;37.790;2023-07-02T01:35:31;22.92;85.05
75190;HTU21D;69198;44.694;37.790;2023-07-02T01:36:32;22.90;85.09
75190;HTU21D;69198;44.694;37.790;2023-07-02T01:37:33;22.87;85.14
75190;HTU21D;69198;44.694;37.790;2023-07-02T01:38:37;22.86;85.14
75190;HTU21D;69198;44.694;37.790;2023-07-02T01:39:39;22.84;85.17
75190;HTU21D;69198;44.694;37.790;2023-07-02T01:40:40;22.81;85.29
75190;HTU21D;69198;44.694;37.790;2023-07-02T01:41:51;22.81;85.35
75190;HTU21D;69198;44.694;37.790;2023-07-02T01:42:52;22.77;85.62
75190;HTU21D;69198;44.694;37.790;2023-07-02T01:43:54;22.77;85.71
75190;HTU21D;69198;44.694;37.790;2023-07-02T01:44:55;22.78;85.69
75190;HTU21D;69198;44.694;37.790;2023-07-02T01:45:57;22.79;85.64
75190;HTU21D;69198;44.694;37.790;2023-07-02T01:46:58;22.81;85.58
75190;HTU21D;69198;44.694;37.790;2023-07-02T01:47:59;22.80;85.48
75190;HTU21D;69198;44.694;37.790;2023-07-02T01:49:00;22.80;85.51
75190;HTU21D;69198;44.694;37.790;2023-07-02T01:50:05;22.80;85.48
75190;HTU21D;69198;44.694;37.790;2023-07-02T01:51:06;22.78;85.49
75190;HTU21D;69198;44.694;37.790;2023-07-02T01:52:07;22.78;85.55
75190;HTU21D;69198;44.694;37.790;2023-07-02T01:53:08;22.77;85.62
75190;HTU21D;69198;44.694;37.790;2023-07-02T01:54:09;22.76;85.68
75190;HTU21D;69198;44.694;37.790;2023-07-02T01:55:10;22.76;85.68
75190;HTU21D;69198;44.694;37.790;2023-07-02T01:56:11;22.77;85.63
75190;HTU21D;69198;44.694;37.790;2023-07-02T01:57:12;22.79;85.48
75190;HTU21D;69198;44.694;37.790;2023-07-02T01:58:13;22.81;85.30
75190;HTU21D;69198;44.694;37.790;2023-07-02T01:59:15;22.81;85.18
75190;HTU21D;69198;44.694;37.790;2023-07-02T02:00:16;22.82;85.19
75190;HTU21D;69198;44.694;37.790;2023-07-02T02:01:18;22.85;85.13
75190;HTU21D;69198;44.694;37.790;2023-07-02T02:02:19;22.86;85.10
75190;HTU21D;69198;44.694;37.790;2023-07-02T02:03:22;22.87;85.09
75190;HTU21D;69198;44.694;37.790;2023-07-02T02:04:23;22.86;85.13
75190;HTU21D;69198;44.694;37.790;2023-07-02T02:05:24;22.86;85.17
75190;HTU21D;69198;44.694;37.790;2023-07-02T02:06:25;22.85;85.17
75190;HTU21D;69198;44.694;37.790;2023-07-02T02:07:26;22.85;85.16
75190;HTU21D;69198;44.694;37.790;2023-07-02T02:08:27;22.86;85.06
75190;HTU21D;69198;44.694;37.790;2023-07-02T02:09:28;22.87;84.96
75190;HTU21D;69198;44.694;37.790;2023-07-02T02:10:31;22.87;84.80
75190;HTU21D;69198;44.694;37.790;2023-07-02T02:11:33;22.87;84.73
75190;HTU21D;69198;44.694;37.790;2023-07-02T02:12:34;22.90;84.60
75190;HTU21D;69198;44.694;37.790;2023-07-02T02:13:41;22.91;84.55
75190;HTU21D;69198;44.694;37.790;2023-07-02T02:14:42;22.90;84.58
75190;HTU21D;69198;44.694;37.790;2023-07-02T02:15:43;22.91;84.52
75190;HTU21D;69198;44.694;37.790;2023-07-02T02:16:44;22.91;84.50
75190;HTU21D;69198;44.694;37.790;2023-07-02T02:17:48;22.90;84.39
75190;HTU21D;69198;44.694;37.790;2023-07-02T02:18:49;22.91;84.33
75190;HTU21D;69198;44.694;37.790;2023-07-02T02:19:52;22.93;84.29
75190;HTU21D;69198;44.694;37.790;2023-07-02T02:20:53;22.95;84.25
75190;HTU21D;69198;44.694;37.790;2023-07-02T02:21:54;22.96;84.16
75190;HTU21D;69198;44.694;37.790;2023-07-02T02:22:55;23.01;84.12
75190;HTU21D;69198;44.694;37.790;2023-07-02T02:23:56;23.02;84.10
75190;HTU21D;69198;44.694;37.790;2023-07-02T02:24:57;23.07;83.95
75190;HTU21D;69198;44.694;37.790;2023-07-02T02:25:58;23.09;83.85
75190;HTU21D;69198;44.694;37.790;2023-07-02T02:26:59;23.24;83.49
75190;HTU21D;69198;44.694;37.790;2023-07-02T02:28:00;23.44;82.78
75190;HTU21D;69198;44.694;37.790;2023-07-02T02:29:01;23.65;82.04
75190;HTU21D;69198;44.694;37.790;2023-07-02T02:30:04;23.86;81.33
75190;HTU21D;69198;44.694;37.790;2023-07-02T02:31:08;24.16;80.36
75190;HTU21D;69198;44.694;37.790;2023-07-02T02:32:11;24.38;79.49
75190;HTU21D;69198;44.694;37.790;2023-07-02T02:33:13;24.54;78.59
75190;HTU21D;69198;44.694;37.790;2023-07-02T02:34:14;24.64;78.21
75190;HTU21D;69198;44.694;37.790;2023-07-02T02:35:16;24.76;77.87
75190;HTU21D;69198;44.694;37.790;2023-07-02T02:36:17;24.89;77.47
75190;HTU21D;69198;44.694;37.790;2023-07-02T02:37:19;25.04;76.93
75190;HTU21D;69198;44.694;37.790;2023-07-02T02:38:23;25.18;76.32
75190;HTU21D;69198;44.694;37.790;2023-07-02T02:39:24;25.31;75.76
75190;HTU21D;69198;44.694;37.790;2023-07-02T02:40:25;25.44;75.15
75190;HTU21D;69198;44.694;37.790;2023-07-02T02:41:26;25.51;74.76
75190;HTU21D;69198;44.694;37.790;2023-07-02T02:42:27;25.48;74.89
75190;HTU21D;69198;44.694;37.790;2023-07-02T02:43:29;25.47;74.83
75190;HTU21D;69198;44.694;37.790;2023-07-02T02:44:30;25.60;74.41
75190;HTU21D;69198;44.694;37.790;2023-07-02T02:45:34;25.71;73.84
75190;HTU21D;69198;44.694;37.790;2023-07-02T02:46:35;25.61;73.80
75190;HTU21D;69198;44.694;37.790;2023-07-02T02:47:36;25.50;74.14
75190;HTU21D;69198;44.694;37.790;2023-07-02T02:48:36;25.62;73.96
75190;HTU21D;69198;44.694;37.790;2023-07-02T02:49:38;25.80;73.25
75190;HTU21D;69198;44.694;37.790;2023-07-02T02:50:40;25.99;72.52
75190;HTU21D;69198;44.694;37.790;2023-07-02T02:51:44;26.17;71.79
75190;HTU21D;69198;44.694;37.790;2023-07-02T02:52:45;26.36;71.25
75190;HTU21D;69198;44.694;37.790;2023-07-02T02:53:46;26.52;70.56
75190;HTU21D;69198;44.694;37.790;2023-07-02T02:54:49;26.67;69.90
75190;HTU21D;69198;44.694;37.790;2023-07-02T02:55:50;26.84;69.25
75190;HTU21D;69198;44.694;37.790;2023-07-02T02:56:51;27.05;68.65
75190;HTU21D;69198;44.694;37.790;2023-07-02T02:57:52;27.17;68.19
75190;HTU21D;69198;44.694;37.790;2023-07-02T02:58:53;27.28;67.85
75190;HTU21D;69198;44.694;37.790;2023-07-02T02:59:54;27.40;67.39
75190;HTU21D;69198;44.694;37.790;2023-07-02T03:00:55;27.51;67.05
75190;HTU21D;69198;44.694;37.790;2023-07-02T03:01:56;27.55;66.73
75190;HTU21D;69198;44.694;37.790;2023-07-02T03:02:58;27.53;66.61
75190;HTU21D;69198;44.694;37.790;2023-07-02T03:03:59;27.61;66.24
75190;HTU21D;69198;44.694;37.790;2023-07-02T03:05:01;27.72;65.81
75190;HTU21D;69198;44.694;37.790;2023-07-02T03:06:05;27.84;65.66
75190;HTU21D;69198;44.694;37.790;2023-07-02T03:07:06;27.93;65.34
75190;HTU21D;69198;44.694;37.790;2023-07-02T03:08:08;28.03;64.79
75190;HTU21D;69198;44.694;37.790;2023-07-02T03:09:09;28.12;64.49
75190;HTU21D;69198;44.694;37.790;2023-07-02T03:10:11;28.18;64.24
75190;HTU21D;69198;44.694;37.790;2023-07-02T03:11:12;28.26;63.83
75190;HTU21D;69198;44.694;37.790;2023-07-02T03:12:13;28.30;63.45
75190;HTU21D;69198;44.694;37.790;2023-07-02T03:13:14;28.34;63.35
75190;HTU21D;69198;44.694;37.790;2023-07-02T03:14:15;28.47;63.18
75190;HTU21D;69198;44.694;37.790;2023-07-02T03:15:16;28.59;62.57
75190;HTU21D;69198;44.694;37.790;2023-07-02T03:16:18;28.65;62.34
75190;HTU21D;69198;44.694;37.790;2023-07-02T03:17:22;28.74;62.22
75190;HTU21D;69198;44.694;37.790;2023-07-02T03:18:23;28.85;61.82
75190;HTU21D;69198;44.694;37.790;2023-07-02T03:19:24;28.95;61.35
75190;HTU21D;69198;44.694;37.790;2023-07-02T03:20:25;28.99;61.15
75190;HTU21D;69198;44.694;37.790;2023-07-02T03:21:26;29.02;60.96
75190;HTU21D;69198;44.694;37.790;2023-07-02T03:22:27;29.08;60.73
75190;HTU21D;69198;44.694;37.790;2023-07-02T03:23:28;29.17;60.44
75190;HTU21D;69198;44.694;37.790;2023-07-02T03:24:29;29.22;60.02
75190;HTU21D;69198;44.694;37.790;2023-07-02T03:25:30;29.24;59.95
75190;HTU21D;69198;44.694;37.790;2023-07-02T03:26:31;29.28;59.82
75190;HTU21D;69198;44.694;37.790;2023-07-02T03:27:32;29.28;59.70
75190;HTU21D;69198;44.694;37.790;2023-07-02T03:28:33;29.31;59.57
75190;HTU21D;69198;44.694;37.790;2023-07-02T03:29:35;29.36;59.47
75190;HTU21D;69198;44.694;37.790;2023-07-02T03:30:38;29.53;59.11
75190;HTU21D;69198;44.694;37.790;2023-07-02T03:31:39;29.66;58.61
75190;HTU21D;69198;44.694;37.790;2023-07-02T03:32:40;29.72;58.33
75190;HTU21D;69198;44.694;37.790;2023-07-02T03:33:41;29.78;58.26
75190;HTU21D;69198;44.694;37.790;2023-07-02T03:34:42;29.93;58.01
75190;HTU21D;69198;44.694;37.790;2023-07-02T03:35:43;30.03;57.69
75190;HTU21D;69198;44.694;37.790;2023-07-02T03:36:44;30.12;57.35
75190;HTU21D;69198;44.694;37.790;2023-07-02T03:37:45;30.24;56.95
75190;HTU21D;69198;44.694;37.790;2023-07-02T03:38:47;30.37;56.68
75190;HTU21D;69198;44.694;37.790;2023-07-02T03:39:48;30.46;56.47
75190;HTU21D;69198;44.694;37.790;2023-07-02T03:40:49;30.51;56.18
75190;HTU21D;69198;44.694;37.790;2023-07-02T03:41:49;30.57;55.79
75190;HTU21D;69198;44.694;37.790;2023-07-02T03:42:51;30.60;55.63
75190;HTU21D;69198;44.694;37.790;2023-07-02T03:43:52;30.67;55.45
75190;HTU21D;69198;44.694;37.790;2023-07-02T03:44:53;30.79;55.17
75190;HTU21D;69198;44.694;37.790;2023-07-02T03:45:54;30.90;54.87
75190;HTU21D;69198;44.694;37.790;2023-07-02T03:46:55;30.97;54.50
75190;HTU21D;69198;44.694;37.790;2023-07-02T03:47:56;31.01;54.39
75190;HTU21D;69198;44.694;37.790;2023-07-02T03:48:57;31.05;54.45
75190;HTU21D;69198;44.694;37.790;2023-07-02T03:49:58;31.10;54.29
75190;HTU21D;69198;44.694;37.790;2023-07-02T03:51:00;31.19;53.97
75190;HTU21D;69198;44.694;37.790;2023-07-02T03:52:02;31.27;53.47
75190;HTU21D;69198;44.694;37.790;2023-07-02T03:53:03;31.38;53.27
75190;HTU21D;69198;44.694;37.790;2023-07-02T03:54:04;31.49;52.95
75190;HTU21D;69198;44.694;37.790;2023-07-02T03:55:05;31.48;52.96
75190;HTU21D;69198;44.694;37.790;2023-07-02T03:56:06;31.43;52.97
75190;HTU21D;69198;44.694;37.790;2023-07-02T03:57:07;31.40;52.94
75190;HTU21D;69198;44.694;37.790;2023-07-02T03:58:08;31.38;52.90
75190;HTU21D;69198;44.694;37.790;2023-07-02T03:59:09;31.36;52.85
75190;HTU21D;69198;44.694;37.790;2023-07-02T04:00:11;31.38;52.81
75190;HTU21D;69198;44.694;37.790;2023-07-02T04:01:18;31.39;52.78
75190;HTU21D;69198;44.694;37.790;2023-07-02T04:02:19;31.41;52.68
75190;HTU21D;69198;44.694;37.790;2023-07-02T04:03:20;31.42;52.56
75190;HTU21D;69198;44.694;37.790;2023-07-02T04:04:21;31.41;52.55
75190;HTU21D;69198;44.694;37.790;2023-07-02T04:05:22;31.41;52.43
75190;HTU21D;69198;44.694;37.790;2023-07-02T04:06:23;31.43;52.43
75190;HTU21D;69198;44.694;37.790;2023-07-02T04:07:24;31.42;52.36
75190;HTU21D;69198;44.694;37.790;2023-07-02T04:08:25;31.51;52.50
75190;HTU21D;69198;44.694;37.790;2023-07-02T04:09:26;31.64;52.36
75190;HTU21D;69198;44.694;37.790;2023-07-02T04:10:27;31.78;52.19
75190;HTU21D;69198;44.694;37.790;2023-07-02T04:11:28;31.93;51.75
75190;HTU21D;69198;44.694;37.790;2023-07-02T04:12:30;32.01;51.43
75190;HTU21D;69198;44.694;37.790;2023-07-02T04:13:31;32.02;51.24
75190;HTU21D;69198;44.694;37.790;2023-07-02T04:14:32;31.97;51.50
75190;HTU21D;69198;44.694;37.790;2023-07-02T04:15:34;32.00;51.56
75190;HTU21D;69198;44.694;37.790;2023-07-02T04:16:34;32.08;51.17
75190;HTU21D;69198;44.694;37.790;2023-07-02T04:17:35;32.08;50.82
75190;HTU21D;69198;44.694;37.790;2023-07-02T04:18:36;32.13;50.85
75190;HTU21D;69198;44.694;37.790;2023-07-02T04:19:37;32.19;50.74
75190;HTU21D;69198;44.694;37.790;2023-07-02T04:20:38;32.24;50.27
75190;HTU21D;69198;44.694;37.790;2023-07-02T04:21:39;32.25;50.20
75190;HTU21D;69198;44.694;37.790;2023-07-02T04:22:40;32.31;49.97
75190;HTU21D;69198;44.694;37.790;2023-07-02T04:23:41;32.09;50.18
75190;HTU21D;69198;44.694;37.790;2023-07-02T04:24:42;31.76;51.11
75190;HTU21D;69198;44.694;37.790;2023-07-02T04:25:43;31.70;51.21
75190;HTU21D;69198;44.694;37.790;2023-07-02T04:26:44;31.67;51.21
75190;HTU21D;69198;44.694;37.790;2023-07-02T04:27:45;31.57;51.21
75190;HTU21D;69198;44.694;37.790;2023-07-02T04:28:46;31.49;51.52
75190;HTU21D;69198;44.694;37.790;2023-07-02T04:29:47;31.57;51.54
75190;HTU21D;69198;44.694;37.790;2023-07-02T04:30:48;31.49;51.72
75190;HTU21D;69198;44.694;37.790;2023-07-02T04:31:52;31.29;52.07
75190;HTU21D;69198;44.694;37.790;2023-07-02T04:32:53;31.07;52.44
75190;HTU21D;69198;44.694;37.790;2023-07-02T04:33:54;30.76;52.91
75190;HTU21D;69198;44.694;37.790;2023-07-02T04:34:55;30.46;53.72
75190;HTU21D;69198;44.694;37.790;2023-07-02T04:35:57;30.27;54.26
75190;HTU21D;69198;44.694;37.790;2023-07-02T04:36:57;29.98;54.93
75190;HTU21D;69198;44.694;37.790;2023-07-02T04:37:58;29.66;55.87
75190;HTU21D;69198;44.694;37.790;2023-07-02T04:38:59;29.39;56.80
75190;HTU21D;69198;44.694;37.790;2023-07-02T04:40:01;29.15;57.22
75190;HTU21D;69198;44.694;37.790;2023-07-02T04:41:10;29.04;57.29
75190;HTU21D;69198;44.694;37.790;2023-07-02T04:42:11;28.86;57.76
75190;HTU21D;69198;44.694;37.790;2023-07-02T04:43:14;28.75;58.19
75190;HTU21D;69198;44.694;37.790;2023-07-02T04:44:19;28.77;58.45
75190;HTU21D;69198;44.694;37.790;2023-07-02T04:45:22;29.15;57.83
75190;HTU21D;69198;44.694;37.790;2023-07-02T04:46:24;29.65;56.95
75190;HTU21D;69198;44.694;37.790;2023-07-02T04:47:25;30.11;55.67
75190;HTU21D;69198;44.694;37.790;2023-07-02T04:48:26;30.42;54.92
75190;HTU21D;69198;44.694;37.790;2023-07-02T04:49:27;30.72;54.23
75190;HTU21D;69198;44.694;37.790;2023-07-02T04:50:28;30.92;53.66
75190;HTU21D;69198;44.694;37.790;2023-07-02T04:51:29;31.10;53.31
75190;HTU21D;69198;44.694;37.790;2023-07-02T04:52:31;31.26;52.85
75190;HTU21D;69198;44.694;37.790;2023-07-02T04:53:32;31.38;52.31
75190;HTU21D;69198;44.694;37.790;2023-07-02T04:54:33;31.44;52.11
75190;HTU21D;69198;44.694;37.790;2023-07-02T04:55:34;31.53;51.85
75190;HTU21D;69198;44.694;37.790;2023-07-02T04:56:35;31.51;51.85
75190;HTU21D;69198;44.694;37.790;2023-07-02T04:57:36;31.63;51.56
75190;HTU21D;69198;44.694;37.790;2023-07-02T04:58:37;31.75;51.17
75190;HTU21D;69198;44.694;37.790;2023-07-02T04:59:38;31.83;51.04
75190;HTU21D;69198;44.694;37.790;2023-07-02T05:00:39;31.88;50.88
75190;HTU21D;69198;44.694;37.790;2023-07-02T05:01:40;31.93;50.90
75190;HTU21D;69198;44.694;37.790;2023-07-02T05:02:41;32.01;50.73
75190;HTU21D;69198;44.694;37.790;2023-07-02T05:03:42;31.98;50.53
75190;HTU21D;69198;44.694;37.790;2023-07-02T05:04:43;31.99;50.47
75190;HTU21D;69198;44.694;37.790;2023-07-02T05:05:44;32.04;50.48
75190;HTU21D;69198;44.694;37.790;2023-07-02T05:06:45;32.17;50.11
75190;HTU21D;69198;44.694;37.790;2023-07-02T05:07:46;32.18;49.82
75190;HTU21D;69198;44.694;37.790;2023-07-02T05:08:47;32.17;49.98
75190;HTU21D;69198;44.694;37.790;2023-07-02T05:09:48;32.19;49.72
75190;HTU21D;69198;44.694;37.790;2023-07-02T05:10:52;32.19;49.69
75190;HTU21D;69198;44.694;37.790;2023-07-02T05:11:53;32.19;49.73
75190;HTU21D;69198;44.694;37.790;2023-07-02T05:12:54;32.19;49.91
75190;HTU21D;69198;44.694;37.790;2023-07-02T05:13:55;32.26;49.69
75190;HTU21D;69198;44.694;37.790;2023-07-02T05:14:56;32.28;49.58
75190;HTU21D;69198;44.694;37.790;2023-07-02T05:15:57;32.35;49.44
75190;HTU21D;69198;44.694;37.790;2023-07-02T05:16:58;32.44;49.01
75190;HTU21D;69198;44.694;37.790;2023-07-02T05:17:59;32.37;48.92
75190;HTU21D;69198;44.694;37.790;2023-07-02T05:19:00;32.32;49.07
75190;HTU21D;69198;44.694;37.790;2023-07-02T05:20:04;32.30;49.18
75190;HTU21D;69198;44.694;37.790;2023-07-02T05:21:06;32.24;49.36
75190;HTU21D;69198;44.694;37.790;2023-07-02T05:22:08;32.25;49.40
75190;HTU21D;69198;44.694;37.790;2023-07-02T05:23:09;32.37;49.38
75190;HTU21D;69198;44.694;37.790;2023-07-02T05:24:10;32.43;49.33
75190;HTU21D;69198;44.694;37.790;2023-07-02T05:25:11;32.47;49.37
75190;HTU21D;69198;44.694;37.790;2023-07-02T05:26:12;32.50;49.20
75190;HTU21D;69198;44.694;37.790;2023-07-02T05:27:13;32.55;49.18
75190;HTU21D;69198;44.694;37.790;2023-07-02T05:28:14;32.59;49.13
75190;HTU21D;69198;44.694;37.790;2023-07-02T05:29:16;32.67;48.82
75190;HTU21D;69198;44.694;37.790;2023-07-02T05:30:17;32.71;48.44
75190;HTU21D;69198;44.694;37.790;2023-07-02T05:31:18;32.68;48.58
75190;HTU21D;69198;44.694;37.790;2023-07-02T05:32:19;32.66;48.66
75190;HTU21D;69198;44.694;37.790;2023-07-02T05:33:20;32.66;48.56
75190;HTU21D;69198;44.694;37.790;2023-07-02T05:34:22;32.62;48.74
75190;HTU21D;69198;44.694;37.790;2023-07-02T05:35:23;32.62;48.65
75190;HTU21D;69198;44.694;37.790;2023-07-02T05:36:24;32.61;48.78
75190;HTU21D;69198;44.694;37.790;2023-07-02T05:37:25;32.74;48.66
75190;HTU21D;69198;44.694;37.790;2023-07-02T05:38:26;32.79;48.55
75190;HTU21D;69198;44.694;37.790;2023-07-02T05:39:27;32.92;48.44
75190;HTU21D;69198;44.694;37.790;2023-07-02T05:40:28;33.00;48.01
75190;HTU21D;69198;44.694;37.790;2023-07-02T05:41:29;33.04;48.07
75190;HTU21D;69198;44.694;37.790;2023-07-02T05:42:31;33.11;47.94
75190;HTU21D;69198;44.694;37.790;2023-07-02T05:43:32;33.09;47.89
75190;HTU21D;69198;44.694;37.790;2023-07-02T05:44:33;33.04;48.15
75190;HTU21D;69198;44.694;37.790;2023-07-02T05:45:34;33.06;48.10
75190;HTU21D;69198;44.694;37.790;2023-07-02T05:46:35;32.99;47.89
75190;HTU21D;69198;44.694;37.790;2023-07-02T05:47:36;32.87;48.17
75190;HTU21D;69198;44.694;37.790;2023-07-02T05:48:37;32.84;48.34
75190;HTU21D;69198;44.694;37.790;2023-07-02T05:49:38;32.83;48.59
75190;HTU21D;69198;44.694;37.790;2023-07-02T05:50:39;32.88;48.40
75190;HTU21D;69198;44.694;37.790;2023-07-02T05:51:40;32.89;47.97
75190;HTU21D;69198;44.694;37.790;2023-07-02T05:52:41;32.86;47.93
75190;HTU21D;69198;44.694;37.790;2023-07-02T05:53:42;32.88;47.89
75190;HTU21D;69198;44.694;37.790;2023-07-02T05:54:42;32.84;48.02
75190;HTU21D;69198;44.694;37.790;2023-07-02T05:55:43;32.79;47.94
75190;HTU21D;69198;44.694;37.790;2023-07-02T05:56:45;32.73;48.05
75190;HTU21D;69198;44.694;37.790;2023-07-02T05:57:46;32.69;48.23
75190;HTU21D;69198;44.694;37.790;2023-07-02T05:58:48;32.81;48.21
75190;HTU21D;69198;44.694;37.790;2023-07-02T05:59:52;32.88;48.24
75190;HTU21D;69198;44.694;37.790;2023-07-02T06:00:53;32.93;48.20
75190;HTU21D;69198;44.694;37.790;2023-07-02T06:01:54;32.97;48.18
75190;HTU21D;69198;44.694;37.790;2023-07-02T06:02:55;32.99;47.99
75190;HTU21D;69198;44.694;37.790;2023-07-02T06:03:56;33.01;47.82
75190;HTU21D;69198;44.694;37.790;2023-07-02T06:04:57;32.98;47.54
75190;HTU21D;69198;44.694;37.790;2023-07-02T06:05:58;32.93;47.58
75190;HTU21D;69198;44.694;37.790;2023-07-02T06:07:01;32.93;47.68
75190;HTU21D;69198;44.694;37.790;2023-07-02T06:08:02;32.84;47.89
75190;HTU21D;69198;44.694;37.790;2023-07-02T06:09:03;32.82;48.18
75190;HTU21D;69198;44.694;37.790;2023-07-02T06:10:04;32.87;48.24
75190;HTU21D;69198;44.694;37.790;2023-07-02T06:11:05;32.93;48.05
75190;HTU21D;69198;44.694;37.790;2023-07-02T06:12:07;32.96;47.91
75190;HTU21D;69198;44.694;37.790;2023-07-02T06:13:08;32.92;47.70
75190;HTU21D;69198;44.694;37.790;2023-07-02T06:14:09;32.82;47.74
75190;HTU21D;69198;44.694;37.790;2023-07-02T06:15:11;32.78;48.05
75190;HTU21D;69198;44.694;37.790;2023-07-02T06:16:12;32.82;47.83
75190;HTU21D;69198;44.694;37.790;2023-07-02T06:17:13;32.81;48.06